»·PEaware :: N332PS KMMH-KWHP

N332PS :: KMMH-KWHP

FLIGHT INFORMATION

Flight Status: Arrived
Operator: Privately registered:
United States
More flights under this callsign
Pilot: Brad S. (6004)
Aircraft: PILATUS PC-12 EAGLE
(PC12)
More flights by this aircraft type
Origin: KMMH Mammoth Yosemite
United States
Destination: KWHP Whiteman
United States
More flights between these airports :: More routes between these airports
Route: +
File this flight plan on PilotEdge
Remarks:
Altitude:
(Current/Filed)
17,500ft
Speed:
(Current/Filed)
0kts
Departed: 26-Jan-18 11:10 AM
Arrived: 26-Jan-18 11:57 AM
Distance/Time
Traveled:
203nm/0:46
Distance/Time
To Go:
Arrived

Flight Plot

Page will automatically refresh every two minutes.

Flight plan parsing failed; only flown route is shown


Map Options




Map Legend


Flown Route
Filed Route
Departure Airport
Arrival Airport
Navaid (VOR, NDB)
Fix

Horizontal Profiles

Position Reports

Time Latitude Longitude Heading Altitude Ground
Speed
26-Jan-18 11:15 37.509601 -118.663828 184 16678ft 201kts
26-Jan-18 11:16 37.458267 -118.661959 185 17289ft 230kts
26-Jan-18 11:17 37.390440 -118.659440 183 17483ft 258kts
26-Jan-18 11:18 37.317507 -118.656573 184 17482ft 268kts
26-Jan-18 11:19 37.257299 -118.654652 184 17483ft 270kts
26-Jan-18 11:20 37.182130 -118.652286 184 17488ft 271kts
26-Jan-18 11:21 37.106901 -118.649666 183 17493ft 272kts
26-Jan-18 11:22 37.031799 -118.646937 182 17493ft 272kts
26-Jan-18 11:23 36.956463 -118.644544 182 17493ft 272kts
26-Jan-18 11:24 36.881632 -118.642206 182 17490ft 271kts
26-Jan-18 11:25 36.806367 -118.639859 182 17490ft 271kts
26-Jan-18 11:26 36.731379 -118.637522 182 17501ft 270kts
26-Jan-18 11:27 36.657118 -118.635210 182 17515ft 270kts
26-Jan-18 11:28 36.581988 -118.632877 182 17538ft 270kts
26-Jan-18 11:29 36.507053 -118.630554 182 17568ft 270kts
26-Jan-18 11:30 36.432101 -118.628240 182 17583ft 270kts
26-Jan-18 11:31 36.357003 -118.625928 182 17583ft 271kts
26-Jan-18 11:32 36.281915 -118.623621 182 17584ft 271kts
26-Jan-18 11:33 36.206973 -118.621321 182 17584ft 271kts
26-Jan-18 11:34 36.131919 -118.619035 182 17493ft 272kts
26-Jan-18 11:35 36.056736 -118.616722 182 17493ft 271kts
26-Jan-18 11:36 35.981695 -118.614428 182 17493ft 271kts
26-Jan-18 11:37 35.906587 -118.612137 182 17494ft 271kts
26-Jan-18 11:38 35.833827 -118.609923 182 17490ft 271kts
26-Jan-18 11:39 35.759077 -118.607654 182 17483ft 271kts
26-Jan-18 11:40 35.685992 -118.605443 182 17474ft 271kts
26-Jan-18 11:41 35.614951 -118.603299 182 17458ft 271kts
26-Jan-18 11:42 35.539592 -118.601027 182 17436ft 272kts
26-Jan-18 11:43 35.464852 -118.598774 182 17427ft 271kts
26-Jan-18 11:44 35.397458 -118.596744 182 17427ft 271kts
26-Jan-18 11:45 35.322228 -118.594484 182 17427ft 271kts
26-Jan-18 11:46 35.246697 -118.592220 182 17427ft 271kts
26-Jan-18 11:47 35.171496 -118.589970 182 17426ft 272kts
26-Jan-18 11:48 35.101345 -118.587875 182 17423ft 272kts
26-Jan-18 11:49 35.025696 -118.585641 182 17138ft 282kts
26-Jan-18 11:50 34.943615 -118.583441 181 15346ft 302kts
26-Jan-18 11:51 34.862491 -118.581082 180 13328ft 301kts
26-Jan-18 11:52 34.782799 -118.578853 180 11279ft 282kts
26-Jan-18 11:53 34.706467 -118.576912 179 9434ft 270kts
26-Jan-18 11:54 34.636647 -118.558308 160 8132ft 255kts
26-Jan-18 11:55 34.571131 -118.532917 159 6906ft 246kts
26-Jan-18 11:56 34.507281 -118.508216 159 5703ft 239kts
26-Jan-18 11:57 34.445673 -118.484432 159 4604ft 229kts
26-Jan-18 11:58 34.387937 -118.462185 159 4198ft 205kts
26-Jan-18 11:59 34.331854 -118.451700 186 2952ft 209kts
26-Jan-18 12:00 34.288140 -118.450388 122 2046ft 111kts
26-Jan-18 12:01 34.282868 -118.422888 213 1692ft 119kts
26-Jan-18 12:02 34.261210 -118.415492 137 1016ft 76kts
26-Jan-18 12:03 34.258259 -118.411717 316 1015ft 5kts
26-Jan-18 12:04 34.260287 -118.413855 316 1015ft 13kts
26-Jan-18 12:05 34.261806 -118.413471 43 1015ft 7kts
26-Jan-18 12:06 34.261794 -118.413224 142 1015ft 0kts
26-Jan-18 12:07 34.261794 -118.413224 142 1015ft 0kts
26-Jan-18 12:08 34.261794 -118.413224 142 1015ft 0kts
26-Jan-18 12:09 34.261794 -118.413224 142 1015ft 0kts
26-Jan-18 12:10 34.261794 -118.413224 142 1015ft 0kts

Navigation Log

Ident Type
Flight plan parsing failed, navigation log unavailable